sensor_id;sensor_type;location;lat;lon;timestamp;temperature;humidity
41953;DHT22;63613;28.200;112.870;2024-03-23T00:54:06;19.10;74.90
41953;DHT22;63613;28.200;112.870;2024-03-23T00:56:35;19.10;74.90
41953;DHT22;63613;28.200;112.870;2024-03-23T00:59:04;19.10;74.90
41953;DHT22;63613;28.200;112.870;2024-03-23T01:01:32;19.10;74.90
41953;DHT22;63613;28.200;112.870;2024-03-23T01:04:01;19.10;75.00
41953;DHT22;63613;28.200;112.870;2024-03-23T01:06:31;19.10;75.00
41953;DHT22;63613;28.200;112.870;2024-03-23T01:09:00;19.10;75.00
41953;DHT22;63613;28.200;112.870;2024-03-23T01:11:29;19.10;75.00
41953;DHT22;63613;28.200;112.870;2024-03-23T01:13:58;19.10;75.00
41953;DHT22;63613;28.200;112.870;2024-03-23T01:16:26;19.10;75.00
41953;DHT22;63613;28.200;112.870;2024-03-23T01:18:56;19.10;75.00
41953;DHT22;63613;28.200;112.870;2024-03-23T01:21:24;19.10;75.00
41953;DHT22;63613;28.200;112.870;2024-03-23T01:23:53;19.10;75.00
41953;DHT22;63613;28.200;112.870;2024-03-23T01:26:21;19.20;75.00
41953;DHT22;63613;28.200;112.870;2024-03-23T01:28:50;19.10;75.00
41953;DHT22;63613;28.200;112.870;2024-03-23T01:31:20;19.20;75.00
41953;DHT22;63613;28.200;112.870;2024-03-23T01:33:48;19.20;75.00
41953;DHT22;63613;28.200;112.870;2024-03-23T01:36:17;19.20;75.00
41953;DHT22;63613;28.200;112.870;2024-03-23T01:38:47;19.20;75.10
41953;DHT22;63613;28.200;112.870;2024-03-23T01:41:15;19.20;75.10
41953;DHT22;63613;28.200;112.870;2024-03-23T01:43:45;19.20;75.00
41953;DHT22;63613;28.200;112.870;2024-03-23T01:46:14;19.20;75.10
41953;DHT22;63613;28.200;112.870;2024-03-23T01:48:43;19.20;75.00
41953;DHT22;63613;28.200;112.870;2024-03-23T01:51:12;19.20;75.10
41953;DHT22;63613;28.200;112.870;2024-03-23T01:53:41;19.20;75.10
41953;DHT22;63613;28.200;112.870;2024-03-23T01:56:11;19.20;75.10
41953;DHT22;63613;28.200;112.870;2024-03-23T01:58:40;19.20;75.10
41953;DHT22;63613;28.200;112.870;2024-03-23T02:01:09;19.20;75.10
41953;DHT22;63613;28.200;112.870;2024-03-23T02:03:37;19.20;75.10
41953;DHT22;63613;28.200;112.870;2024-03-23T02:06:06;19.30;75.10
41953;DHT22;63613;28.200;112.870;2024-03-23T02:08:37;19.20;75.10
41953;DHT22;63613;28.200;112.870;2024-03-23T02:11:06;19.30;75.20
41953;DHT22;63613;28.200;112.870;2024-03-23T02:13:35;19.30;75.10
41953;DHT22;63613;28.200;112.870;2024-03-23T02:16:04;19.30;75.20
41953;DHT22;63613;28.200;112.870;2024-03-23T02:18:34;19.30;75.10
41953;DHT22;63613;28.200;112.870;2024-03-23T02:21:04;19.30;75.10
41953;DHT22;63613;28.200;112.870;2024-03-23T02:23:33;19.30;75.10
41953;DHT22;63613;28.200;112.870;2024-03-23T02:26:01;19.30;75.20
41953;DHT22;63613;28.200;112.870;2024-03-23T02:28:30;19.30;75.20
41953;DHT22;63613;28.200;112.870;2024-03-23T02:30:58;19.30;75.20
41953;DHT22;63613;28.200;112.870;2024-03-23T02:33:29;19.30;75.10
41953;DHT22;63613;28.200;112.870;2024-03-23T02:35:59;19.30;75.20
41953;DHT22;63613;28.200;112.870;2024-03-23T02:38:28;19.30;75.20
41953;DHT22;63613;28.200;112.870;2024-03-23T02:41:03;19.30;75.20
41953;DHT22;63613;28.200;112.870;2024-03-23T02:43:32;19.30;75.30
41953;DHT22;63613;28.200;112.870;2024-03-23T02:46:01;19.40;75.40
41953;DHT22;63613;28.200;112.870;2024-03-23T02:48:31;20.00;79.30
41953;DHT22;63613;28.200;112.870;2024-03-23T02:51:00;20.60;78.60
41953;DHT22;63613;28.200;112.870;2024-03-23T02:53:29;21.50;75.50
41953;DHT22;63613;28.200;112.870;2024-03-23T02:55:59;21.20;76.00
41953;DHT22;63613;28.200;112.870;2024-03-23T02:58:28;20.90;76.50
41953;DHT22;63613;28.200;112.870;2024-03-23T03:00:57;21.30;77.40
41953;DHT22;63613;28.200;112.870;2024-03-23T03:03:25;21.80;76.70
41953;DHT22;63613;28.200;112.870;2024-03-23T03:05:58;21.60;76.70
41953;DHT22;63613;28.200;112.870;2024-03-23T03:08:27;21.80;76.80
41953;DHT22;63613;28.200;112.870;2024-03-23T03:10:55;21.80;75.90
41953;DHT22;63613;28.200;112.870;2024-03-23T03:13:24;21.90;76.40
41953;DHT22;63613;28.200;112.870;2024-03-23T03:15:53;22.00;75.90
41953;DHT22;63613;28.200;112.870;2024-03-23T03:18:22;21.90;76.00
41953;DHT22;63613;28.200;112.870;2024-03-23T03:20:53;22.20;75.80
41953;DHT22;63613;28.200;112.870;2024-03-23T03:23:22;22.20;75.20
41953;DHT22;63613;28.200;112.870;2024-03-23T03:25:51;22.30;75.70
41953;DHT22;63613;28.200;112.870;2024-03-23T03:28:20;22.40;75.10
41953;DHT22;63613;28.200;112.870;2024-03-23T03:30:49;22.30;75.10
41953;DHT22;63613;28.200;112.870;2024-03-23T03:33:18;22.60;75.20
41953;DHT22;63613;28.200;112.870;2024-03-23T03:35:46;22.70;74.70
41953;DHT22;63613;28.200;112.870;2024-03-23T03:38:15;22.50;74.40
41953;DHT22;63613;28.200;112.870;2024-03-23T03:40:44;22.60;74.70
41953;DHT22;63613;28.200;112.870;2024-03-23T03:43:15;22.40;74.80
41953;DHT22;63613;28.200;112.870;2024-03-23T03:45:51;22.70;74.70
41953;DHT22;63613;28.200;112.870;2024-03-23T03:48:20;22.80;74.40
41953;DHT22;63613;28.200;112.870;2024-03-23T03:50:49;22.90;74.10
41953;DHT22;63613;28.200;112.870;2024-03-23T03:53:19;22.60;74.40
41953;DHT22;63613;28.200;112.870;2024-03-23T03:55:47;22.70;74.50
41953;DHT22;63613;28.200;112.870;2024-03-23T03:58:16;22.50;74.30
41953;DHT22;63613;28.200;112.870;2024-03-23T04:00:45;22.20;74.60
41953;DHT22;63613;28.200;112.870;2024-03-23T04:03:13;22.10;74.80
41953;DHT22;63613;28.200;112.870;2024-03-23T04:05:47;22.00;74.90
41953;DHT22;63613;28.200;112.870;2024-03-23T04:08:18;21.80;75.20
41953;DHT22;63613;28.200;112.870;2024-03-23T04:10:47;21.80;75.20
41953;DHT22;63613;28.200;112.870;2024-03-23T04:13:16;21.70;75.50
41953;DHT22;63613;28.200;112.870;2024-03-23T04:15:54;21.70;75.60
41953;DHT22;63613;28.200;112.870;2024-03-23T04:18:23;21.60;75.50
41953;DHT22;63613;28.200;112.870;2024-03-23T04:20:52;21.50;75.70
41953;DHT22;63613;28.200;112.870;2024-03-23T04:23:21;21.50;75.90
41953;DHT22;63613;28.200;112.870;2024-03-23T04:25:50;21.50;76.00
41953;DHT22;63613;28.200;112.870;2024-03-23T04:28:21;21.50;75.80
41953;DHT22;63613;28.200;112.870;2024-03-23T04:30:50;21.40;76.10
41953;DHT22;63613;28.200;112.870;2024-03-23T04:33:18;21.40;76.00
41953;DHT22;63613;28.200;112.870;2024-03-23T04:35:50;21.30;76.10
41953;DHT22;63613;28.200;112.870;2024-03-23T04:38:18;21.30;76.00
41953;DHT22;63613;28.200;112.870;2024-03-23T04:40:56;21.30;76.10
41953;DHT22;63613;28.200;112.870;2024-03-23T04:43:25;21.30;76.20
41953;DHT22;63613;28.200;112.870;2024-03-23T04:45:54;21.30;76.20
41953;DHT22;63613;28.200;112.870;2024-03-23T04:48:23;21.30;76.20
41953;DHT22;63613;28.200;112.870;2024-03-23T04:50:57;21.30;76.20
41953;DHT22;63613;28.200;112.870;2024-03-23T04:53:26;21.30;76.30
41953;DHT22;63613;28.200;112.870;2024-03-23T04:55:56;21.30;76.50
41953;DHT22;63613;28.200;112.870;2024-03-23T04:58:26;21.30;76.30
41953;DHT22;63613;28.200;112.870;2024-03-23T05:00:56;21.30;76.30
41953;DHT22;63613;28.200;112.870;2024-03-23T05:03:25;21.30;76.40
41953;DHT22;63613;28.200;112.870;2024-03-23T05:05:53;21.30;76.70
41953;DHT22;63613;28.200;112.870;2024-03-23T05:08:22;21.30;76.30
41953;DHT22;63613;28.200;112.870;2024-03-23T05:10:51;21.30;76.40
41953;DHT22;63613;28.200;112.870;2024-03-23T05:13:20;21.30;76.60
41953;DHT22;63613;28.200;112.870;2024-03-23T05:15:54;21.30;76.50
41953;DHT22;63613;28.200;112.870;2024-03-23T05:18:23;21.30;76.80
41953;DHT22;63613;28.200;112.870;2024-03-23T05:20:58;21.30;76.90
41953;DHT22;63613;28.200;112.870;2024-03-23T05:23:29;21.50;77.50
41953;DHT22;63613;28.200;112.870;2024-03-23T05:25:57;21.50;76.90
41953;DHT22;63613;28.200;112.870;2024-03-23T05:28:26;21.50;76.70
41953;DHT22;63613;28.200;112.870;2024-03-23T05:30:55;21.50;76.70
41953;DHT22;63613;28.200;112.870;2024-03-23T05:33:25;21.40;76.70
41953;DHT22;63613;28.200;112.870;2024-03-23T05:36:00;21.40;76.60
41953;DHT22;63613;28.200;112.870;2024-03-23T05:38:29;21.30;76.50
41953;DHT22;63613;28.200;112.870;2024-03-23T05:40:58;21.30;76.70
41953;DHT22;63613;28.200;112.870;2024-03-23T05:43:28;21.30;76.90
41953;DHT22;63613;28.200;112.870;2024-03-23T05:45:59;21.30;76.90
41953;DHT22;63613;28.200;112.870;2024-03-23T05:48:27;21.30;76.90
41953;DHT22;63613;28.200;112.870;2024-03-23T05:50:58;21.30;77.00
41953;DHT22;63613;28.200;112.870;2024-03-23T05:53:26;21.30;77.00
41953;DHT22;63613;28.200;112.870;2024-03-23T05:56:06;21.30;77.00
41953;DHT22;63613;28.200;112.870;2024-03-23T05:58:35;21.30;77.00
41953;DHT22;63613;28.200;112.870;2024-03-23T06:01:03;21.20;76.90
41953;DHT22;63613;28.200;112.870;2024-03-23T06:03:32;21.20;76.90
41953;DHT22;63613;28.200;112.870;2024-03-23T06:06:03;21.20;76.90
41953;DHT22;63613;28.200;112.870;2024-03-23T06:08:34;21.10;76.90
41953;DHT22;63613;28.200;112.870;2024-03-23T06:11:04;21.10;77.00
41953;DHT22;63613;28.200;112.870;2024-03-23T06:13:34;21.10;77.00
41953;DHT22;63613;28.200;112.870;2024-03-23T06:16:02;21.10;77.10
41953;DHT22;63613;28.200;112.870;2024-03-23T06:18:31;21.00;77.00
41953;DHT22;63613;28.200;112.870;2024-03-23T06:21:01;21.10;77.10
41953;DHT22;63613;28.200;112.870;2024-03-23T06:23:29;21.10;77.20
41953;DHT22;63613;28.200;112.870;2024-03-23T06:25:58;21.10;77.00
41953;DHT22;63613;28.200;112.870;2024-03-23T06:28:27;21.20;76.60
41953;DHT22;63613;28.200;112.870;2024-03-23T06:30:55;21.20;76.40
41953;DHT22;63613;28.200;112.870;2024-03-23T06:33:25;21.20;76.20
41953;DHT22;63613;28.200;112.870;2024-03-23T06:35:54;21.30;75.80
41953;DHT22;63613;28.200;112.870;2024-03-23T06:38:23;21.30;75.60
41953;DHT22;63613;28.200;112.870;2024-03-23T06:40:51;21.30;75.30
41953;DHT22;63613;28.200;112.870;2024-03-23T06:43:20;21.30;75.40
41953;DHT22;63613;28.200;112.870;2024-03-23T06:45:54;21.30;75.40
41953;DHT22;63613;28.200;112.870;2024-03-23T06:48:23;21.30;75.10
41953;DHT22;63613;28.200;112.870;2024-03-23T06:50:56;21.30;74.80
41953;DHT22;63613;28.200;112.870;2024-03-23T06:53:25;21.30;74.50
41953;DHT22;63613;28.200;112.870;2024-03-23T06:55:55;21.30;74.30
41953;DHT22;63613;28.200;112.870;2024-03-23T06:58:25;21.30;74.60
41953;DHT22;63613;28.200;112.870;2024-03-23T07:00:53;21.20;75.20
41953;DHT22;63613;28.200;112.870;2024-03-23T07:03:22;21.20;75.40
41953;DHT22;63613;28.200;112.870;2024-03-23T07:05:57;21.10;75.50
41953;DHT22;63613;28.200;112.870;2024-03-23T07:08:26;21.10;75.60
41953;DHT22;63613;28.200;112.870;2024-03-23T07:10:55;21.10;75.60
41953;DHT22;63613;28.200;112.870;2024-03-23T07:13:24;21.00;75.60
41953;DHT22;63613;28.200;112.870;2024-03-23T07:15:53;21.00;75.70
41953;DHT22;63613;28.200;112.870;2024-03-23T07:18:23;21.00;75.70
41953;DHT22;63613;28.200;112.870;2024-03-23T07:20:55;21.00;75.80
41953;DHT22;63613;28.200;112.870;2024-03-23T07:23:25;21.00;75.80
41953;DHT22;63613;28.200;112.870;2024-03-23T07:25:58;21.00;75.90
41953;DHT22;63613;28.200;112.870;2024-03-23T07:28:27;21.00;76.00
41953;DHT22;63613;28.200;112.870;2024-03-23T07:31:04;20.90;76.00
41953;DHT22;63613;28.200;112.870;2024-03-23T07:33:34;20.90;76.10
41953;DHT22;63613;28.200;112.870;2024-03-23T07:36:03;20.90;76.10
41953;DHT22;63613;28.200;112.870;2024-03-23T07:38:32;20.90;76.20
41953;DHT22;63613;28.200;112.870;2024-03-23T07:41:11;21.00;76.10
41953;DHT22;63613;28.200;112.870;2024-03-23T07:43:40;20.90;76.20
41953;DHT22;63613;28.200;112.870;2024-03-23T07:46:09;21.00;76.30
41953;DHT22;63613;28.200;112.870;2024-03-23T07:48:38;20.90;76.20
41953;DHT22;63613;28.200;112.870;2024-03-23T07:51:20;21.00;76.40
41953;DHT22;63613;28.200;112.870;2024-03-23T07:53:49;21.00;76.40
41953;DHT22;63613;28.200;112.870;2024-03-23T07:56:19;21.00;76.50
41953;DHT22;63613;28.200;112.870;2024-03-23T07:58:49;21.00;76.50
41953;DHT22;63613;28.200;112.870;2024-03-23T08:01:18;21.00;76.50
41953;DHT22;63613;28.200;112.870;2024-03-23T08:03:47;21.00;76.60
41953;DHT22;63613;28.200;112.870;2024-03-23T08:06:19;21.00;76.50
41953;DHT22;63613;28.200;112.870;2024-03-23T08:08:55;21.00;76.50
41953;DHT22;63613;28.200;112.870;2024-03-23T08:11:30;21.00;76.70
41953;DHT22;63613;28.200;112.870;2024-03-23T08:14:00;21.00;76.60
41953;DHT22;63613;28.200;112.870;2024-03-23T08:16:29;21.00;76.70
41953;DHT22;63613;28.200;112.870;2024-03-23T08:18:57;21.00;76.70
41953;DHT22;63613;28.200;112.870;2024-03-23T08:21:26;21.00;76.70
41953;DHT22;63613;28.200;112.870;2024-03-23T08:23:55;21.10;76.60
41953;DHT22;63613;28.200;112.870;2024-03-23T08:26:24;21.10;76.70
41953;DHT22;63613;28.200;112.870;2024-03-23T08:28:53;21.00;76.90
41953;DHT22;63613;28.200;112.870;2024-03-23T08:31:21;21.10;76.80
41953;DHT22;63613;28.200;112.870;2024-03-23T08:33:50;21.10;77.00
41953;DHT22;63613;28.200;112.870;2024-03-23T08:36:19;21.10;77.00
41953;DHT22;63613;28.200;112.870;2024-03-23T08:38:48;21.10;77.00
41953;DHT22;63613;28.200;112.870;2024-03-23T08:41:17;21.10;76.90
41953;DHT22;63613;28.200;112.870;2024-03-23T08:43:46;21.10;76.90
41953;DHT22;63613;28.200;112.870;2024-03-23T08:46:16;21.10;77.00
41953;DHT22;63613;28.200;112.870;2024-03-23T08:48:46;21.10;77.00
41953;DHT22;63613;28.200;112.870;2024-03-23T08:51:17;21.10;77.10
41953;DHT22;63613;28.200;112.870;2024-03-23T08:53:46;21.20;77.20
41953;DHT22;63613;28.200;112.870;2024-03-23T08:56:15;21.20;77.10
41953;DHT22;63613;28.200;112.870;2024-03-23T08:58:45;21.20;77.10
41953;DHT22;63613;28.200;112.870;2024-03-23T09:01:14;21.10;77.20
41953;DHT22;63613;28.200;112.870;2024-03-23T09:03:43;21.20;77.20
41953;DHT22;63613;28.200;112.870;2024-03-23T09:06:12;21.20;77.30
41953;DHT22;63613;28.200;112.870;2024-03-23T09:08:41;21.10;77.20
41953;DHT22;63613;28.200;112.870;2024-03-23T09:11:12;21.20;77.30
41953;DHT22;63613;28.200;112.870;2024-03-23T09:13:41;21.10;77.40
41953;DHT22;63613;28.200;112.870;2024-03-23T09:16:10;21.20;77.50
41953;DHT22;63613;28.200;112.870;2024-03-23T09:18:39;21.20;77.40
41953;DHT22;63613;28.200;112.870;2024-03-23T09:21:13;21.20;77.50
41953;DHT22;63613;28.200;112.870;2024-03-23T09:23:45;21.30;77.50
41953;DHT22;63613;28.200;112.870;2024-03-23T09:26:14;21.30;77.60
41953;DHT22;63613;28.200;112.870;2024-03-23T09:28:43;21.30;77.50
41953;DHT22;63613;28.200;112.870;2024-03-23T09:31:12;21.30;77.50
41953;DHT22;63613;28.200;112.870;2024-03-23T09:33:43;21.30;77.50
41953;DHT22;63613;28.200;112.870;2024-03-23T09:36:11;21.30;77.40
41953;DHT22;63613;28.200;112.870;2024-03-23T09:38:41;21.20;77.30
41953;DHT22;63613;28.200;112.870;2024-03-23T09:41:10;21.20;77.40
41953;DHT22;63613;28.200;112.870;2024-03-23T09:43:39;21.20;77.40
41953;DHT22;63613;28.200;112.870;2024-03-23T09:46:09;21.20;77.50
41953;DHT22;63613;28.200;112.870;2024-03-23T09:48:38;21.10;77.80
41953;DHT22;63613;28.200;112.870;2024-03-23T09:51:07;21.20;77.80
41953;DHT22;63613;28.200;112.870;2024-03-23T09:53:37;21.20;77.90
41953;DHT22;63613;28.200;112.870;2024-03-23T09:56:07;21.20;77.70
41953;DHT22;63613;28.200;112.870;2024-03-23T09:58:37;21.20;77.70
41953;DHT22;63613;28.200;112.870;2024-03-23T10:01:06;21.10;77.70
41953;DHT22;63613;28.200;112.870;2024-03-23T10:03:45;21.10;77.70
41953;DHT22;63613;28.200;112.870;2024-03-23T10:06:13;21.10;77.70
41953;DHT22;63613;28.200;112.870;2024-03-23T10:08:43;21.10;77.80
41953;DHT22;63613;28.200;112.870;2024-03-23T10:11:15;21.10;78.00
41953;DHT22;63613;28.200;112.870;2024-03-23T10:13:45;21.10;78.10
41953;DHT22;63613;28.200;112.870;2024-03-23T10:16:22;21.10;78.00
41953;DHT22;63613;28.200;112.870;2024-03-23T10:18:52;21.10;77.90
41953;DHT22;63613;28.200;112.870;2024-03-23T10:21:20;21.10;77.90
41953;DHT22;63613;28.200;112.870;2024-03-23T10:23:49;21.10;77.90
41953;DHT22;63613;28.200;112.870;2024-03-23T10:26:21;21.10;77.90
41953;DHT22;63613;28.200;112.870;2024-03-23T10:29:00;21.10;77.90
41953;DHT22;63613;28.200;112.870;2024-03-23T10:31:30;21.00;77.90
41953;DHT22;63613;28.200;112.870;2024-03-23T10:33:59;21.00;78.00
41953;DHT22;63613;28.200;112.870;2024-03-23T10:36:28;21.00;77.90
41953;DHT22;63613;28.200;112.870;2024-03-23T10:38:57;21.00;78.00
41953;DHT22;63613;28.200;112.870;2024-03-23T10:41:29;21.00;78.20
41953;DHT22;63613;28.200;112.870;2024-03-23T10:44:00;21.00;78.40
41953;DHT22;63613;28.200;112.870;2024-03-23T10:46:30;21.10;78.40
41953;DHT22;63613;28.200;112.870;2024-03-23T10:48:59;21.10;78.40
41953;DHT22;63613;28.200;112.870;2024-03-23T10:51:29;21.10;78.20
41953;DHT22;63613;28.200;112.870;2024-03-23T10:53:58;21.20;77.90
41953;DHT22;63613;28.200;112.870;2024-03-23T10:56:28;21.20;77.80
41953;DHT22;63613;28.200;112.870;2024-03-23T10:59:02;21.20;77.60
41953;DHT22;63613;28.200;112.870;2024-03-23T11:01:33;21.30;77.30
41953;DHT22;63613;28.200;112.870;2024-03-23T11:04:01;21.20;77.20
41953;DHT22;63613;28.200;112.870;2024-03-23T11:06:38;21.20;77.30
41953;DHT22;63613;28.200;112.870;2024-03-23T11:12:28;21.20;76.90
41953;DHT22;63613;28.200;112.870;2024-03-23T11:15:05;21.20;76.80
41953;DHT22;63613;28.200;112.870;2024-03-23T11:17:34;21.20;76.80
41953;DHT22;63613;28.200;112.870;2024-03-23T11:20:04;21.20;76.80
41953;DHT22;63613;28.200;112.870;2024-03-23T11:22:46;21.30;76.30
41953;DHT22;63613;28.200;112.870;2024-03-23T11:25:25;21.20;76.50
41953;DHT22;63613;28.200;112.870;2024-03-23T11:27:57;21.20;76.50
41953;DHT22;63613;28.200;112.870;2024-03-23T11:30:27;21.30;75.90
41953;DHT22;63613;28.200;112.870;2024-03-23T11:32:59;21.30;75.90
41953;DHT22;63613;28.200;112.870;2024-03-23T11:35:29;21.30;76.00
41953;DHT22;63613;28.200;112.870;2024-03-23T11:38:16;21.30;76.10
41953;DHT22;63613;28.200;112.870;2024-03-23T11:40:48;21.30;75.70
41953;DHT22;63613;28.200;112.870;2024-03-23T11:43:19;21.30;75.00
41953;DHT22;63613;28.200;112.870;2024-03-23T11:45:51;21.30;75.40
41953;DHT22;63613;28.200;112.870;2024-03-23T11:48:22;21.30;74.90
41953;DHT22;63613;28.200;112.870;2024-03-23T11:50:54;21.30;75.00
41953;DHT22;63613;28.200;112.870;2024-03-23T11:53:26;21.30;74.60
41953;DHT22;63613;28.200;112.870;2024-03-23T11:55:58;21.30;74.90
41953;DHT22;63613;28.200;112.870;2024-03-23T11:58:28;21.30;75.20
41953;DHT22;63613;28.200;112.870;2024-03-23T12:01:00;21.30;74.90
41953;DHT22;63613;28.200;112.870;2024-03-23T12:03:31;21.30;74.90
41953;DHT22;63613;28.200;112.870;2024-03-23T12:06:03;21.30;75.20
41953;DHT22;63613;28.200;112.870;2024-03-23T12:08:34;21.30;75.20
41953;DHT22;63613;28.200;112.870;2024-03-23T12:11:10;21.30;74.80
41953;DHT22;63613;28.200;112.870;2024-03-23T12:13:42;21.30;74.70
41953;DHT22;63613;28.200;112.870;2024-03-23T12:16:16;21.30;74.60
41953;DHT22;63613;28.200;112.870;2024-03-23T12:18:46;21.30;74.90
41953;DHT22;63613;28.200;112.870;2024-03-23T12:21:15;21.30;74.80
41953;DHT22;63613;28.200;112.870;2024-03-23T12:23:45;21.30;74.80
41953;DHT22;63613;28.200;112.870;2024-03-23T12:26:16;21.30;74.80
41953;DHT22;63613;28.200;112.870;2024-03-23T12:28:45;21.30;74.90
41953;DHT22;63613;28.200;112.870;2024-03-23T12:31:14;21.30;74.80
41953;DHT22;63613;28.200;112.870;2024-03-23T12:33:42;21.30;74.90
41953;DHT22;63613;28.200;112.870;2024-03-23T12:36:12;21.30;74.60
41953;DHT22;63613;28.200;112.870;2024-03-23T12:38:42;21.30;74.60
41953;DHT22;63613;28.200;112.870;2024-03-23T12:41:12;21.30;74.30
41953;DHT22;63613;28.200;112.870;2024-03-23T12:43:41;21.50;74.00
41953;DHT22;63613;28.200;112.870;2024-03-23T12:46:09;21.60;73.50
41953;DHT22;63613;28.200;112.870;2024-03-23T12:48:40;21.50;74.00
41953;DHT22;63613;28.200;112.870;2024-03-23T12:51:09;21.60;73.20
41953;DHT22;63613;28.200;112.870;2024-03-23T12:53:38;21.80;72.60
41953;DHT22;63613;28.200;112.870;2024-03-23T12:56:09;21.80;72.60
41953;DHT22;63613;28.200;112.870;2024-03-23T12:58:41;21.80;72.40
41953;DHT22;63613;28.200;112.870;2024-03-23T13:01:10;21.80;71.90
41953;DHT22;63613;28.200;112.870;2024-03-23T13:03:38;21.80;72.30
41953;DHT22;63613;28.200;112.870;2024-03-23T13:06:08;21.80;72.40
41953;DHT22;63613;28.200;112.870;2024-03-23T13:08:37;21.80;72.40
41953;DHT22;63613;28.200;112.870;2024-03-23T13:11:09;21.70;73.10
41953;DHT22;63613;28.200;112.870;2024-03-23T13:13:39;21.70;73.00
41953;DHT22;63613;28.200;112.870;2024-03-23T13:16:09;21.70;73.00
41953;DHT22;63613;28.200;112.870;2024-03-23T13:18:38;21.60;73.00
41953;DHT22;63613;28.200;112.870;2024-03-23T13:21:07;21.60;73.10
41953;DHT22;63613;28.200;112.870;2024-03-23T13:23:37;21.60;73.10
41953;DHT22;63613;28.200;112.870;2024-03-23T13:26:09;21.50;73.10
41953;DHT22;63613;28.200;112.870;2024-03-23T13:28:38;21.50;73.10
41953;DHT22;63613;28.200;112.870;2024-03-23T13:31:07;21.50;73.00
41953;DHT22;63613;28.200;112.870;2024-03-23T13:33:36;21.50;73.10
41953;DHT22;63613;28.200;112.870;2024-03-23T13:36:07;21.50;73.10
41953;DHT22;63613;28.200;112.870;2024-03-23T13:38:36;21.50;73.20
41953;DHT22;63613;28.200;112.870;2024-03-23T13:41:05;21.40;73.30
41953;DHT22;63613;28.200;112.870;2024-03-23T13:43:35;21.40;73.30
41953;DHT22;63613;28.200;112.870;2024-03-23T13:46:04;21.40;73.40
41953;DHT22;63613;28.200;112.870;2024-03-23T13:48:35;21.30;73.40
41953;DHT22;63613;28.200;112.870;2024-03-23T13:51:05;21.40;73.50
41953;DHT22;63613;28.200;112.870;2024-03-23T13:53:34;21.30;73.50
41953;DHT22;63613;28.200;112.870;2024-03-23T13:56:04;21.30;73.60
41953;DHT22;63613;28.200;112.870;2024-03-23T13:58:32;21.30;73.70
41953;DHT22;63613;28.200;112.870;2024-03-23T14:01:02;21.30;73.70
41953;DHT22;63613;28.200;112.870;2024-03-23T14:03:32;21.30;73.80
41953;DHT22;63613;28.200;112.870;2024-03-23T14:06:01;21.30;73.90
41953;DHT22;63613;28.200;112.870;2024-03-23T14:08:30;21.30;73.90
41953;DHT22;63613;28.200;112.870;2024-03-23T14:11:02;21.30;74.00
41953;DHT22;63613;28.200;112.870;2024-03-23T14:13:31;21.30;74.00
41953;DHT22;63613;28.200;112.870;2024-03-23T14:16:01;21.30;74.10
41953;DHT22;63613;28.200;112.870;2024-03-23T14:18:30;21.30;74.10
41953;DHT22;63613;28.200;112.870;2024-03-23T14:21:03;21.30;74.10
41953;DHT22;63613;28.200;112.870;2024-03-23T14:23:32;21.30;74.20
41953;DHT22;63613;28.200;112.870;2024-03-23T14:26:01;21.30;74.20
41953;DHT22;63613;28.200;112.870;2024-03-23T14:28:30;21.30;74.20
41953;DHT22;63613;28.200;112.870;2024-03-23T14:30:59;21.30;74.20
41953;DHT22;63613;28.200;112.870;2024-03-23T14:33:30;21.20;74.30
41953;DHT22;63613;28.200;112.870;2024-03-23T14:36:01;21.30;74.30
41953;DHT22;63613;28.200;112.870;2024-03-23T14:38:30;21.20;74.30
41953;DHT22;63613;28.200;112.870;2024-03-23T14:41:00;21.20;74.30
41953;DHT22;63613;28.200;112.870;2024-03-23T14:43:32;21.20;74.40
41953;DHT22;63613;28.200;112.870;2024-03-23T14:46:12;21.20;74.40
41953;DHT22;63613;28.200;112.870;2024-03-23T14:48:43;21.30;74.50
41953;DHT22;63613;28.200;112.870;2024-03-23T14:51:13;21.20;74.50
41953;DHT22;63613;28.200;112.870;2024-03-23T14:53:46;21.20;74.50
41953;DHT22;63613;28.200;112.870;2024-03-23T14:56:15;21.20;74.60
41953;DHT22;63613;28.200;112.870;2024-03-23T14:58:45;21.20;74.60
41953;DHT22;63613;28.200;112.870;2024-03-23T15:01:15;21.20;74.70
41953;DHT22;63613;28.200;112.870;2024-03-23T15:03:45;21.20;74.70
41953;DHT22;63613;28.200;112.870;2024-03-23T15:06:15;21.20;74.70
41953;DHT22;63613;28.200;112.870;2024-03-23T15:08:43;21.20;74.80
41953;DHT22;63613;28.200;112.870;2024-03-23T15:11:12;21.20;74.80
41953;DHT22;63613;28.200;112.870;2024-03-23T15:13:41;21.10;74.90
41953;DHT22;63613;28.200;112.870;2024-03-23T15:16:11;21.10;74.90
41953;DHT22;63613;28.200;112.870;2024-03-23T15:18:40;21.10;74.90
41953;DHT22;63613;28.200;112.870;2024-03-23T15:21:09;21.20;75.00
41953;DHT22;63613;28.200;112.870;2024-03-23T15:23:39;21.20;75.00
41953;DHT22;63613;28.200;112.870;2024-03-23T15:26:11;21.10;75.10
41953;DHT22;63613;28.200;112.870;2024-03-23T15:28:40;21.10;75.10
41953;DHT22;63613;28.200;112.870;2024-03-23T15:31:11;21.10;75.20
41953;DHT22;63613;28.200;112.870;2024-03-23T15:33:40;21.10;75.30
41953;DHT22;63613;28.200;112.870;2024-03-23T15:36:09;21.10;75.30
41953;DHT22;63613;28.200;112.870;2024-03-23T15:38:39;21.10;75.30
41953;DHT22;63613;28.200;112.870;2024-03-23T15:41:08;21.10;75.30
41953;DHT22;63613;28.200;112.870;2024-03-23T15:43:36;21.10;75.40
41953;DHT22;63613;28.200;112.870;2024-03-23T15:46:06;21.10;75.40
41953;DHT22;63613;28.200;112.870;2024-03-23T15:48:35;21.10;75.40
41953;DHT22;63613;28.200;112.870;2024-03-23T15:51:05;21.10;75.40
41953;DHT22;63613;28.200;112.870;2024-03-23T15:53:34;21.10;75.50
41953;DHT22;63613;28.200;112.870;2024-03-23T15:56:04;21.10;75.50
41953;DHT22;63613;28.200;112.870;2024-03-23T15:58:34;21.10;75.50
41953;DHT22;63613;28.200;112.870;2024-03-23T16:01:07;21.10;75.60
41953;DHT22;63613;28.200;112.870;2024-03-23T16:03:39;21.10;75.60
41953;DHT22;63613;28.200;112.870;2024-03-23T16:06:08;21.10;75.60
41953;DHT22;63613;28.200;112.870;2024-03-23T16:08:37;21.10;75.60
41953;DHT22;63613;28.200;112.870;2024-03-23T16:11:07;21.10;75.70
41953;DHT22;63613;28.200;112.870;2024-03-23T16:13:36;21.10;75.70
41953;DHT22;63613;28.200;112.870;2024-03-23T16:16:05;21.10;75.70